»·PEaware :: N4D KBUR-KSMX

N4D :: KBUR-KSMX

FLIGHT INFORMATION

Flight Status: Arrived
Operator: Privately registered:
United States
More flights under this callsign
Pilot: Alec D. (17934)
Aircraft: BEECH AIRCRAFT SUPER KING AIR COMMUTER
(BE20)
More flights by this aircraft type
Origin: KBUR Bob Hope-Burbank
United States
Destination: KSMX Santa Maria Pub/Capt Hancock
United States
More flights between these airports :: More routes between these airports
Route: +VNY3 FIM V386 RZS KOAKS
File this flight plan on PilotEdge
Remarks:
Altitude:
(Current/Filed)
10,000ft
Speed:
(Current/Filed)
265kts
Departed: 03-Jul-18 07:05 PM
Arrived: 03-Jul-18 07:52 PM
Distance/Time
Traveled:
112nm/0:47
Distance/Time
To Go:
Arrived

Flight Plot

Page will automatically refresh every two minutes.

Flight plan parsing failed; only flown route is shown


Map Options




Map Legend


Flown Route
Filed Route
Departure Airport
Arrival Airport
Navaid (VOR, NDB)
Fix

Horizontal Profiles

Position Reports

Time Latitude Longitude Heading Altitude Ground
Speed
03-Jul-18 18:45 34.200228 -118.364526 0 782ft 0kts
03-Jul-18 18:46 34.200228 -118.364526 0 782ft 0kts
03-Jul-18 18:47 34.200228 -118.364526 0 782ft 0kts
03-Jul-18 18:48 34.200228 -118.364526 0 782ft 0kts
03-Jul-18 18:49 34.200228 -118.364526 0 782ft 0kts
03-Jul-18 18:50 34.200228 -118.364526 0 782ft 0kts
03-Jul-18 18:51 34.200230 -118.364526 0 782ft 0kts
03-Jul-18 18:52 34.200236 -118.364526 0 782ft 0kts
03-Jul-18 18:53 34.200239 -118.364526 0 782ft 0kts
03-Jul-18 18:54 34.200242 -118.364526 0 782ft 0kts
03-Jul-18 18:55 34.200245 -118.364526 0 782ft 0kts
03-Jul-18 18:56 34.200248 -118.364526 0 782ft 0kts
03-Jul-18 18:57 34.200250 -118.364526 0 782ft 0kts
03-Jul-18 18:58 34.200253 -118.364526 0 782ft 0kts
03-Jul-18 18:58 34.200256 -118.364526 0 782ft 0kts
03-Jul-18 18:59 34.200259 -118.364526 0 782ft 0kts
03-Jul-18 19:01 34.200262 -118.364526 0 782ft 0kts
03-Jul-18 19:02 34.198971 -118.364826 269 782ft 12kts
03-Jul-18 19:03 34.198741 -118.368944 184 782ft 0kts
03-Jul-18 19:04 34.198737 -118.368944 184 782ft 0kts
03-Jul-18 19:05 34.197903 -118.368584 92 782ft 20kts
03-Jul-18 19:06 34.194722 -118.333732 121 1493ft 153kts
03-Jul-18 19:07 34.153887 -118.327152 217 3246ft 178kts
03-Jul-18 19:07 34.121905 -118.363002 224 4638ft 189kts
03-Jul-18 19:08 34.085058 -118.406697 224 6434ft 184kts
03-Jul-18 19:09 34.047367 -118.450430 224 8157ft 189kts
03-Jul-18 19:10 34.011294 -118.495813 250 9884ft 190kts
03-Jul-18 19:11 34.019155 -118.567519 281 10029ft 238kts
03-Jul-18 19:12 34.035077 -118.648302 281 10022ft 253kts
03-Jul-18 19:13 34.051636 -118.731442 284 10021ft 256kts
03-Jul-18 19:14 34.085188 -118.807830 297 10022ft 259kts
03-Jul-18 19:15 34.119532 -118.884647 296 10001ft 260kts
03-Jul-18 19:16 34.153554 -118.961641 296 9999ft 260kts
03-Jul-18 19:17 34.187810 -119.038833 296 9998ft 260kts
03-Jul-18 19:18 34.221997 -119.115885 296 9996ft 260kts
03-Jul-18 19:19 34.256152 -119.193056 296 9997ft 260kts
03-Jul-18 19:20 34.290374 -119.270559 296 9999ft 260kts
03-Jul-18 19:21 34.324430 -119.347819 296 10003ft 261kts
03-Jul-18 19:22 34.358613 -119.425587 296 10006ft 261kts
03-Jul-18 19:23 34.392662 -119.503276 296 10006ft 261kts
03-Jul-18 19:24 34.426747 -119.580885 296 10004ft 261kts
03-Jul-18 19:25 34.460806 -119.658761 296 10000ft 261kts
03-Jul-18 19:26 34.494705 -119.736566 296 9998ft 261kts
03-Jul-18 19:27 34.529931 -119.813633 298 9997ft 262kts
03-Jul-18 19:28 34.566856 -119.890010 298 9997ft 262kts
03-Jul-18 19:29 34.603594 -119.966339 298 9996ft 262kts
03-Jul-18 19:30 34.640277 -120.042913 298 9996ft 262kts
03-Jul-18 19:31 34.677289 -120.120008 298 9238ft 265kts
03-Jul-18 19:32 34.713396 -120.195608 298 8998ft 255kts
03-Jul-18 19:33 34.750129 -120.270252 304 8590ft 264kts
03-Jul-18 19:34 34.795746 -120.340931 307 7594ft 263kts
03-Jul-18 19:35 34.840472 -120.409129 307 6592ft 254kts
03-Jul-18 19:36 34.884057 -120.476307 307 5591ft 251kts
03-Jul-18 19:37 34.927238 -120.542403 307 4593ft 248kts
03-Jul-18 19:38 34.970071 -120.606047 307 4018ft 225kts
03-Jul-18 19:39 35.006628 -120.659748 307 4007ft 192kts
03-Jul-18 19:40 35.039431 -120.708055 307 4008ft 179kts
03-Jul-18 19:41 35.070298 -120.754835 307 4009ft 174kts
03-Jul-18 19:42 35.108416 -120.778243 34 4007ft 177kts
03-Jul-18 19:43 35.107515 -120.722763 112 4010ft 178kts
03-Jul-18 19:44 35.083024 -120.670341 133 4012ft 178kts
03-Jul-18 19:45 35.049762 -120.629262 141 3991ft 157kts
03-Jul-18 19:46 35.016365 -120.594912 139 3420ft 150kts
03-Jul-18 19:47 34.988093 -120.560071 136 2457ft 138kts
03-Jul-18 19:48 34.962606 -120.529537 135 2025ft 125kts
03-Jul-18 19:49 34.939563 -120.501949 135 1175ft 111kts
03-Jul-18 19:50 34.917265 -120.475128 135 651ft 112kts
03-Jul-18 19:51 34.897459 -120.451417 135 265ft 57kts
03-Jul-18 19:52 34.892213 -120.446522 227 265ft 0kts
03-Jul-18 19:53 34.892211 -120.446525 227 265ft 0kts
03-Jul-18 19:54 34.891716 -120.448294 270 265ft 20kts
03-Jul-18 19:55 34.892314 -120.453655 359 265ft 12kts
03-Jul-18 19:56 34.892861 -120.455707 179 265ft 0kts
03-Jul-18 19:57 34.892858 -120.455707 179 265ft 0kts
03-Jul-18 19:58 34.892858 -120.455707 179 265ft 0kts
03-Jul-18 19:59 34.892858 -120.455707 179 265ft 0kts
03-Jul-18 20:00 34.892858 -120.455707 179 265ft 0kts
03-Jul-18 20:01 34.892858 -120.455707 179 265ft 0kts
03-Jul-18 20:02 34.892858 -120.455707 179 265ft 0kts
03-Jul-18 20:03 34.892858 -120.455707 179 265ft 0kts

Navigation Log

Ident Type
Flight plan parsing failed, navigation log unavailable